createdAt,value
2023-03-11T00:01:53.511Z,64.59
2023-03-11T00:06:57.376Z,64.25
2023-03-11T00:12:02.740Z,62.25
2023-03-11T00:17:06.425Z,62.25
2023-03-11T00:22:10.262Z,62.51
2023-03-11T00:27:15.544Z,61.18
2023-03-11T00:32:19.431Z,61.65
2023-03-11T00:37:23.178Z,62.78
2023-03-11T00:42:28.477Z,62.22
2023-03-11T00:47:32.197Z,64.07
2023-03-11T00:52:35.898Z,64.51
2023-03-11T00:57:42.175Z,65.03
2023-03-11T01:02:45.942Z,65.71
2023-03-11T01:07:49.869Z,65.32
2023-03-11T01:12:55.369Z,63.88
2023-03-11T01:17:59.047Z,64.92
2023-03-11T01:23:02.703Z,66.61
2023-03-11T01:28:09.002Z,67.97
2023-03-11T01:33:16.590Z,67.23
2023-03-11T01:38:20.431Z,68.71
2023-03-11T01:43:51.200Z,66.80
2023-03-11T01:48:56.554Z,69.56
2023-03-11T01:54:05.977Z,70.55
2023-03-11T01:59:15.125Z,73.58
2023-03-11T02:04:20.706Z,74.05
2023-03-11T02:09:25.208Z,75.85
2023-03-11T02:14:31.980Z,77.32
2023-03-11T02:19:49.496Z,78.22
2023-03-11T02:25:02.350Z,78.85
2023-03-11T02:30:10.486Z,78.41
2023-03-11T02:35:14.239Z,78.32
2023-03-11T02:40:42.953Z,80.46
2023-03-11T02:45:49.380Z,79.63
2023-03-11T02:50:54.129Z,79.20
2023-03-11T02:55:57.745Z,79.86
2023-03-11T03:01:03.134Z,79.95
2023-03-11T03:06:07.266Z,80.52
2023-03-11T03:11:10.944Z,81.27
2023-03-11T03:16:16.336Z,81.92
2023-03-11T03:21:20.009Z,83.38
2023-03-11T03:26:23.647Z,82.53
2023-03-11T03:31:29.109Z,81.14
2023-03-11T03:36:32.824Z,80.63
2023-03-11T03:41:37.124Z,80.41
2023-03-11T03:46:42.426Z,83.17
2023-03-11T03:51:46.086Z,83.14
2023-03-11T03:56:49.775Z,83.52
2023-03-11T04:01:55.149Z,84.23
2023-03-11T04:06:58.838Z,83.24
2023-03-11T04:12:02.492Z,82.53
2023-03-11T04:17:09.793Z,83.06
2023-03-11T04:22:13.556Z,82.51
2023-03-11T04:27:17.261Z,83.20
2023-03-11T04:32:22.613Z,83.80
2023-03-11T04:37:29.603Z,83.92
2023-03-11T04:42:33.277Z,84.27
2023-03-11T04:47:38.568Z,84.58
2023-03-11T04:52:42.238Z,83.29
2023-03-11T04:57:45.932Z,83.40
2023-03-11T05:02:51.433Z,83.92
2023-03-11T05:07:55.094Z,85.04
2023-03-11T05:12:59.454Z,85.09
2023-03-11T05:18:05.054Z,84.96
2023-03-11T05:23:08.712Z,84.99
2023-03-11T05:28:12.457Z,84.40
2023-03-11T05:33:17.762Z,83.65
2023-03-11T05:38:21.393Z,83.98
2023-03-11T05:43:25.021Z,84.30
2023-03-11T05:48:30.328Z,83.32
2023-03-11T05:53:33.984Z,83.64
2023-03-11T05:58:37.622Z,83.54
2023-03-11T06:03:43.326Z,83.21
2023-03-11T06:08:46.977Z,82.98
2023-03-11T06:13:54.318Z,83.82
2023-03-11T06:18:59.642Z,81.84
2023-03-11T06:24:03.510Z,82.22
2023-03-11T06:29:13.218Z,82.32
2023-03-11T06:34:18.628Z,83.72
2023-03-11T06:39:22.272Z,84.23
2023-03-11T06:44:25.913Z,84.63
2023-03-11T06:49:31.215Z,85.37
2023-03-11T06:54:34.910Z,85.41
2023-03-11T06:59:38.960Z,84.44
2023-03-11T07:04:49.681Z,82.46
2023-03-11T07:09:56.374Z,82.55
2023-03-11T07:15:00.909Z,83.42
2023-03-11T07:20:07.722Z,83.03
2023-03-11T07:25:11.484Z,82.65
2023-03-11T07:30:15.890Z,84.40
2023-03-11T07:35:21.190Z,83.87
2023-03-11T07:40:24.856Z,83.85
2023-03-11T07:45:28.551Z,83.99
2023-03-11T07:50:33.930Z,85.29
2023-03-11T07:55:37.639Z,85.50
2023-03-11T08:00:41.266Z,85.69
2023-03-11T08:05:47.238Z,85.39
2023-03-11T08:10:50.873Z,85.39
2023-03-11T08:15:54.563Z,85.35
2023-03-11T08:21:00.126Z,85.32
2023-03-11T08:26:05.021Z,84.73
2023-03-11T08:31:13.991Z,85.69
2023-03-11T08:36:20.908Z,85.72
2023-03-11T08:41:24.725Z,85.58
2023-03-11T08:46:30.775Z,85.74
2023-03-11T08:51:36.016Z,86.12
2023-03-11T08:56:39.770Z,86.19
2023-03-11T09:01:43.442Z,86.09
2023-03-11T09:06:48.743Z,86.41
2023-03-11T09:11:52.377Z,86.01
2023-03-11T09:16:56.026Z,87.40
2023-03-11T09:22:03.699Z,87.60
2023-03-11T09:27:07.416Z,87.70
2023-03-11T09:32:14.004Z,86.95
2023-03-11T09:37:20.098Z,87.34
2023-03-11T09:42:34.620Z,89.02
2023-03-11T09:47:48.816Z,87.76
2023-03-11T09:53:03.512Z,88.62
2023-03-11T09:58:16.723Z,88.80
2023-03-11T10:03:33.701Z,90.75
2023-03-11T10:08:45.088Z,89.83
2023-03-11T10:14:01.710Z,89.93
2023-03-11T10:19:09.918Z,90.53
2023-03-11T10:24:37.036Z,90.26
2023-03-11T10:29:48.679Z,90.25
2023-03-11T10:34:56.626Z,90.66
2023-03-11T10:40:15.655Z,90.94
2023-03-11T10:45:20.048Z,89.93
2023-03-11T10:50:23.715Z,90.48
2023-03-11T10:55:29.061Z,90.27
2023-03-11T11:00:32.960Z,90.34
2023-03-11T11:05:36.595Z,89.84
2023-03-11T11:10:52.858Z,90.97
2023-03-11T11:16:01.439Z,90.43
2023-03-11T11:21:08.682Z,89.27
2023-03-11T11:26:20.248Z,89.89
2023-03-11T11:31:27.466Z,90.08
2023-03-11T11:36:33.200Z,90.34
2023-03-11T11:41:38.738Z,90.27
2023-03-11T11:46:46.967Z,89.77
2023-03-11T11:51:55.897Z,89.97
2023-03-11T11:57:11.206Z,88.71
2023-03-11T12:02:32.924Z,90.70
2023-03-11T12:07:48.616Z,89.94
2023-03-11T12:13:18.360Z,90.26
2023-03-11T12:18:28.999Z,90.11
2023-03-11T12:23:42.924Z,89.68
2023-03-11T12:28:53.620Z,89.69
2023-03-11T12:34:00.182Z,91.03
2023-03-11T12:39:05.867Z,89.49
2023-03-11T12:44:28.435Z,89.87
2023-03-11T12:49:33.093Z,89.73
2023-03-11T12:54:37.509Z,89.85
2023-03-11T13:00:08.377Z,90.77
2023-03-11T13:05:21.487Z,90.16
2023-03-11T13:10:40.109Z,91.27
2023-03-11T13:15:45.515Z,89.96
2023-03-11T13:20:57.323Z,90.45
2023-03-11T13:26:34.920Z,91.65
2023-03-11T13:31:51.127Z,92.15
2023-03-11T13:37:11.949Z,91.18
2023-03-11T13:42:27.305Z,87.96
2023-03-11T13:47:34.389Z,89.71
2023-03-11T13:52:44.393Z,90.87
2023-03-11T13:57:52.338Z,90.97
2023-03-11T14:02:59.427Z,92.20
2023-03-11T14:08:22.299Z,93.58
2023-03-11T14:13:27.257Z,93.30
2023-03-11T14:18:37.772Z,92.83
2023-03-11T14:23:45.920Z,93.79
2023-03-11T14:28:52.939Z,94.79
2023-03-11T14:33:59.928Z,94.68
2023-03-11T14:39:03.592Z,94.95
2023-03-11T14:44:09.064Z,94.68
2023-03-11T14:49:22.129Z,95.16
2023-03-11T14:54:30.013Z,95.22
2023-03-11T14:59:35.771Z,93.62
2023-03-11T15:04:43.058Z,94.53
2023-03-11T15:09:46.930Z,95.22
2023-03-11T15:14:52.650Z,95.52
2023-03-11T15:19:58.058Z,96.14
2023-03-11T15:25:02.966Z,96.22
2023-03-11T15:30:20.470Z,95.59
2023-03-11T15:35:27.153Z,94.50
2023-03-11T15:40:44.554Z,93.70
2023-03-11T15:45:49.206Z,92.35
2023-03-11T15:50:55.658Z,91.55
2023-03-11T15:56:07.236Z,93.04
2023-03-11T16:01:11.664Z,92.74
2023-03-11T16:06:16.958Z,90.95
2023-03-11T16:11:20.620Z,90.45
2023-03-11T16:16:24.267Z,88.76
2023-03-11T16:21:36.368Z,87.39
2023-03-11T16:26:40.033Z,86.19
2023-03-11T16:31:43.665Z,87.49
2023-03-11T16:36:49.723Z,86.78
2023-03-11T16:41:53.390Z,84.00
2023-03-11T16:46:57.077Z,81.99
2023-03-11T16:52:03.425Z,80.47
2023-03-11T16:57:07.117Z,79.90
2023-03-11T17:02:11.773Z,77.62
2023-03-11T17:07:17.208Z,78.84
2023-03-11T17:12:20.924Z,79.11
2023-03-11T17:17:24.983Z,78.44
2023-03-11T17:22:30.339Z,78.41
2023-03-11T17:27:33.992Z,79.06
2023-03-11T17:32:37.686Z,80.47
2023-03-11T17:37:43.005Z,82.28
2023-03-11T17:42:46.625Z,83.55
2023-03-11T17:47:50.281Z,85.73
2023-03-11T17:52:55.607Z,89.68
2023-03-11T17:57:59.344Z,90.67
2023-03-11T18:03:03.030Z,91.69
2023-03-11T18:08:08.410Z,97.19
2023-03-11T18:13:12.096Z,97.64
2023-03-11T18:18:15.717Z,100.00
2023-03-11T18:23:21.088Z,100.00
2023-03-11T18:28:24.712Z,100.00
2023-03-11T18:33:28.345Z,100.00
2023-03-11T18:38:33.642Z,97.89
2023-03-11T18:43:37.595Z,92.37
2023-03-11T18:48:44.787Z,94.87
2023-03-11T18:53:50.078Z,97.39
2023-03-11T18:58:53.696Z,97.39
2023-03-11T19:03:58.619Z,99.51
2023-03-11T19:09:03.957Z,98.19
2023-03-11T19:14:07.600Z,97.38
2023-03-11T19:19:12.052Z,98.60
2023-03-11T19:24:17.603Z,100.00
2023-03-11T19:29:21.277Z,100.00
2023-03-11T19:34:24.930Z,100.00
2023-03-11T19:39:30.254Z,100.00
2023-03-11T19:44:33.930Z,100.00
2023-03-11T19:49:37.632Z,100.00
2023-03-11T19:54:43.100Z,100.00
2023-03-11T19:59:46.894Z,100.00
2023-03-11T20:04:50.625Z,100.00
2023-03-11T20:09:55.994Z,100.00
2023-03-11T20:14:59.856Z,100.00
2023-03-11T20:20:03.611Z,100.00
2023-03-11T20:25:09.989Z,100.00
2023-03-11T20:30:14.818Z,98.86
2023-03-11T20:35:18.801Z,99.50
2023-03-11T20:40:24.228Z,99.76
2023-03-11T20:45:28.182Z,98.32
2023-03-11T20:50:31.903Z,100.00
2023-03-11T20:55:39.409Z,100.00
2023-03-11T21:00:43.160Z,100.00
2023-03-11T21:05:46.916Z,100.00
2023-03-11T21:10:52.202Z,100.00
2023-03-11T21:15:55.983Z,100.00
2023-03-11T21:20:59.712Z,100.00
2023-03-11T21:26:06.154Z,100.00
2023-03-11T21:31:11.425Z,100.00
2023-03-11T21:36:16.647Z,100.00
2023-03-11T21:41:23.758Z,100.00
2023-03-11T21:46:30.105Z,99.44
2023-03-11T21:51:33.905Z,100.00
2023-03-11T21:56:39.299Z,100.00
2023-03-11T22:01:43.184Z,100.00
2023-03-11T22:06:46.875Z,100.00
2023-03-11T22:11:52.264Z,100.00
2023-03-11T22:16:56.188Z,100.00
2023-03-11T22:21:59.905Z,100.00
2023-03-11T22:27:05.342Z,100.00
2023-03-11T22:32:08.960Z,100.00
2023-03-11T22:37:12.644Z,100.00
2023-03-11T22:42:18.011Z,100.00
2023-03-11T22:47:21.686Z,100.00
2023-03-11T22:52:25.427Z,100.00
2023-03-11T22:57:30.759Z,100.00
2023-03-11T23:02:34.415Z,100.00
2023-03-11T23:07:38.068Z,100.00
2023-03-11T23:12:43.474Z,100.00
2023-03-11T23:17:47.256Z,100.00
2023-03-11T23:22:50.942Z,100.00
2023-03-11T23:27:56.269Z,100.00
2023-03-11T23:33:00.056Z,100.00
2023-03-11T23:38:03.786Z,100.00
2023-03-11T23:43:09.134Z,100.00
2023-03-11T23:48:12.838Z,100.00
2023-03-11T23:53:17.673Z,100.00
2023-03-11T23:58:23.505Z,100.00
